createdAt,value
2019-04-30T00:00:47.075Z,93747.57
2019-04-30T00:03:35.094Z,93734.39
2019-04-30T00:06:03.396Z,93729.74
2019-04-30T00:08:35.503Z,93731.13
2019-04-30T00:11:02.530Z,93733.19
2019-04-30T00:13:30.893Z,93733.19
2019-04-30T00:16:01.617Z,93732.79
2019-04-30T00:18:30.664Z,93732.23
2019-04-30T00:20:58.774Z,93732.98
2019-04-30T00:23:30.655Z,93736.41
2019-04-30T00:25:57.625Z,93737.17
2019-04-30T00:28:26.718Z,93728.94
2019-04-30T00:30:56.174Z,93728.59
2019-04-30T00:33:25.618Z,93725.23
2019-04-30T00:35:55.183Z,93728.55
2019-04-30T00:38:25.248Z,93735.37
2019-04-30T00:40:53.192Z,93725.68
2019-04-30T00:43:21.839Z,93717.65
2019-04-30T00:45:50.390Z,93715.09
2019-04-30T00:48:26.848Z,93714.81
2019-04-30T00:50:49.344Z,93715.70
2019-04-30T00:53:18.038Z,93719.91
2019-04-30T00:55:48.372Z,93720.30
2019-04-30T00:58:19.694Z,93723.61
2019-04-30T01:00:55.490Z,93724.45
2019-04-30T01:03:26.527Z,93712.39
2019-04-30T01:05:55.275Z,93701.49
2019-04-30T01:08:27.168Z,93705.26
2019-04-30T01:10:53.298Z,93702.26
2019-04-30T01:13:21.587Z,93698.88
2019-04-30T01:15:52.487Z,93689.80
2019-04-30T01:18:23.686Z,93684.27
2019-04-30T01:20:50.933Z,93689.37
2019-04-30T01:23:19.633Z,93688.92
2019-04-30T01:25:51.327Z,93698.61
2019-04-30T01:28:22.743Z,93691.96
2019-04-30T01:30:49.544Z,93699.11
2019-04-30T01:33:19.150Z,93693.25
2019-04-30T01:35:48.780Z,93689.36
2019-04-30T01:38:16.092Z,93691.48
2019-04-30T01:40:47.440Z,93687.14
2019-04-30T01:43:14.840Z,93684.55
2019-04-30T01:45:43.482Z,93673.86
2019-04-30T01:48:12.704Z,93673.86
2019-04-30T01:50:42.182Z,93665.39
2019-04-30T01:53:13.049Z,93665.11
2019-04-30T01:55:56.888Z,93665.05
2019-04-30T01:58:53.702Z,93664.61
2019-04-30T02:01:23.106Z,93656.48
2019-04-30T02:03:51.079Z,93665.83
2019-04-30T02:06:19.684Z,93669.16
2019-04-30T02:08:49.374Z,93675.23
2019-04-30T02:11:18.966Z,93675.29
2019-04-30T02:13:49.205Z,93671.42
2019-04-30T02:16:20.753Z,93677.06
2019-04-30T02:18:49.503Z,93673.91
2019-04-30T02:21:19.424Z,93680.84
2019-04-30T02:23:49.318Z,93680.06
2019-04-30T02:26:18.723Z,93680.88
2019-04-30T02:28:49.350Z,93684.72
2019-04-30T02:31:22.366Z,93684.20
2019-04-30T02:33:50.772Z,93681.95
2019-04-30T02:36:40.440Z,93675.45
2019-04-30T02:39:11.161Z,93672.47
2019-04-30T02:41:41.096Z,93670.35
2019-04-30T02:44:09.748Z,93665.98
2019-04-30T02:46:40.640Z,93662.52
2019-04-30T02:49:10.808Z,93658.98
2019-04-30T02:51:40.212Z,93653.73
2019-04-30T02:54:15.177Z,93651.84
2019-04-30T02:56:46.353Z,93658.77
2019-04-30T02:59:14.896Z,93658.97
2019-04-30T03:01:43.121Z,93651.89
2019-04-30T03:04:11.861Z,93648.58
2019-04-30T03:06:40.694Z,93651.47
2019-04-30T03:09:10.351Z,93649.08
2019-04-30T03:11:40.519Z,93656.11
2019-04-30T03:14:10.237Z,93655.15
2019-04-30T03:17:00.393Z,93649.30
2019-04-30T03:19:50.787Z,93650.35
2019-04-30T03:22:20.678Z,93649.91
2019-04-30T03:24:50.144Z,93653.80
2019-04-30T03:27:21.056Z,93657.49
2019-04-30T03:29:50.374Z,93650.09
2019-04-30T03:32:22.102Z,93654.63
2019-04-30T03:34:51.587Z,93657.28
2019-04-30T03:37:19.878Z,93657.19
2019-04-30T03:39:49.305Z,93658.95
2019-04-30T03:42:19.694Z,93658.07
2019-04-30T03:44:49.627Z,93657.61
2019-04-30T03:47:19.958Z,93657.57
2019-04-30T03:49:49.939Z,93661.09
2019-04-30T03:52:19.715Z,93661.59
2019-04-30T03:54:49.461Z,93655.72
2019-04-30T03:57:20.238Z,93660.33
2019-04-30T03:59:49.926Z,93662.88
2019-04-30T04:02:31.906Z,93658.84
2019-04-30T04:05:06.910Z,93655.81
2019-04-30T04:08:03.774Z,93655.86
2019-04-30T04:10:44.945Z,93650.38
2019-04-30T04:13:13.552Z,93648.87
2019-04-30T04:15:41.840Z,93643.63
2019-04-30T04:18:10.841Z,93650.45
2019-04-30T04:20:39.968Z,93652.13
2019-04-30T04:23:09.684Z,93655.66
2019-04-30T04:25:39.976Z,93653.44
2019-04-30T04:28:10.075Z,93650.14
2019-04-30T04:30:39.204Z,93659.44
2019-04-30T04:33:13.191Z,93657.21
2019-04-30T04:35:41.474Z,93658.09
2019-04-30T04:38:12.361Z,93659.87
2019-04-30T04:40:40.039Z,93659.77
2019-04-30T04:43:10.380Z,93662.75
2019-04-30T04:45:40.553Z,93661.87
2019-04-30T04:48:09.559Z,93666.08
2019-04-30T04:50:40.039Z,93655.05
2019-04-30T04:53:11.281Z,93661.82
2019-04-30T04:55:40.022Z,93654.63
2019-04-30T04:58:12.417Z,93662.14
2019-04-30T05:00:39.162Z,93670.79
2019-04-30T05:03:20.149Z,93668.94
2019-04-30T05:05:49.936Z,93662.38
2019-04-30T05:08:18.572Z,93668.23
2019-04-30T05:10:47.310Z,93670.56
2019-04-30T05:13:15.169Z,93669.22
2019-04-30T05:15:43.683Z,93674.04
2019-04-30T05:18:12.259Z,93672.84
2019-04-30T05:20:41.712Z,93674.13
2019-04-30T05:23:10.118Z,93673.22
2019-04-30T05:25:39.109Z,93674.11
2019-04-30T05:28:08.726Z,93677.16
2019-04-30T05:30:37.083Z,93679.27
2019-04-30T05:33:05.780Z,93683.42
2019-04-30T05:35:34.079Z,93681.33
2019-04-30T05:38:02.713Z,93679.14
2019-04-30T05:40:31.394Z,93677.42
2019-04-30T05:43:00.362Z,93674.69
2019-04-30T05:45:29.164Z,93668.31
2019-04-30T05:47:58.739Z,93669.77
2019-04-30T05:50:29.475Z,93666.45
2019-04-30T05:52:59.188Z,93671.70
2019-04-30T05:55:27.234Z,93673.67
2019-04-30T05:57:56.562Z,93676.64
2019-04-30T06:00:24.292Z,93676.36
2019-04-30T06:02:52.080Z,93681.45
2019-04-30T06:05:20.368Z,93685.64
2019-04-30T06:07:51.647Z,93683.58
2019-04-30T06:10:32.029Z,93685.33
2019-04-30T06:13:21.773Z,93685.45
2019-04-30T06:16:09.783Z,93687.19
2019-04-30T06:18:38.594Z,93688.20
2019-04-30T06:21:06.629Z,93695.02
2019-04-30T06:23:35.040Z,93689.09
2019-04-30T06:26:09.551Z,93682.71
2019-04-30T06:28:33.849Z,93687.35
2019-04-30T06:31:02.535Z,93692.13
2019-04-30T06:33:30.405Z,93691.63
2019-04-30T06:35:59.051Z,93689.78
2019-04-30T06:38:29.057Z,93690.36
2019-04-30T06:40:58.852Z,93690.86
2019-04-30T06:43:28.708Z,93692.98
2019-04-30T06:45:58.949Z,93694.23
2019-04-30T06:48:29.517Z,93693.15
2019-04-30T06:50:59.222Z,93694.49
2019-04-30T06:53:29.221Z,93689.02
2019-04-30T06:55:58.999Z,93684.20
2019-04-30T06:58:29.149Z,93690.67
2019-04-30T07:00:59.422Z,93693.03
2019-04-30T07:03:29.051Z,93692.17
2019-04-30T07:05:58.594Z,93695.23
2019-04-30T07:08:55.587Z,93693.29
2019-04-30T07:11:23.829Z,93696.23
2019-04-30T07:13:52.382Z,93706.43
2019-04-30T07:16:20.425Z,93700.41
2019-04-30T07:18:48.992Z,93703.66
2019-04-30T07:21:19.552Z,93702.09
2019-04-30T07:23:48.538Z,93706.92
2019-04-30T07:26:19.681Z,93708.78
2019-04-30T07:28:54.343Z,93706.16
2019-04-30T07:31:19.452Z,93710.89
2019-04-30T07:33:53.104Z,93711.31
2019-04-30T07:36:19.549Z,93714.58
2019-04-30T07:38:54.503Z,93707.43
2019-04-30T07:41:19.053Z,93707.94
2019-04-30T07:43:49.384Z,93719.09
2019-04-30T07:46:19.795Z,93720.95
2019-04-30T07:48:50.155Z,93723.45
2019-04-30T07:51:21.188Z,93733.59
2019-04-30T07:53:49.632Z,93729.50
2019-04-30T07:56:25.776Z,93733.78
2019-04-30T07:58:50.429Z,93735.13
2019-04-30T08:01:19.577Z,93742.38
2019-04-30T08:04:08.854Z,93739.05
2019-04-30T08:06:36.921Z,93739.13
2019-04-30T08:09:10.119Z,93745.38
2019-04-30T08:11:41.667Z,93747.55
2019-04-30T08:14:09.772Z,93747.98
2019-04-30T08:16:38.607Z,93748.37
2019-04-30T08:19:09.024Z,93751.64
2019-04-30T08:21:38.726Z,93751.25
2019-04-30T08:24:08.925Z,93755.38
2019-04-30T08:26:37.296Z,93752.02
2019-04-30T08:29:05.915Z,93754.06
2019-04-30T08:31:34.513Z,93746.39
2019-04-30T08:34:02.969Z,93753.55
2019-04-30T08:36:33.052Z,93755.25
2019-04-30T08:39:01.160Z,93756.72
2019-04-30T08:41:29.876Z,93754.34
2019-04-30T08:43:59.714Z,93756.78
2019-04-30T08:46:28.687Z,93754.62
2019-04-30T08:48:58.803Z,93766.16
2019-04-30T08:51:30.312Z,93756.41
2019-04-30T08:53:58.807Z,93756.92
2019-04-30T08:56:26.590Z,93762.85
2019-04-30T08:58:54.920Z,93769.61
2019-04-30T09:01:23.185Z,93769.61
2019-04-30T09:03:51.760Z,93767.19
2019-04-30T09:06:25.189Z,93768.91
2019-04-30T09:08:59.452Z,93767.52
2019-04-30T09:11:35.539Z,93773.04
2019-04-30T09:13:58.581Z,93777.38
2019-04-30T09:16:26.574Z,93782.95
2019-04-30T09:18:54.784Z,93782.55
2019-04-30T09:21:23.023Z,93783.50
2019-04-30T09:23:52.833Z,93785.22
2019-04-30T09:26:20.904Z,93788.48
2019-04-30T09:28:49.551Z,93789.70
2019-04-30T09:31:19.655Z,93786.69
2019-04-30T09:33:49.216Z,93785.37
2019-04-30T09:36:20.595Z,93790.33
2019-04-30T09:38:48.525Z,93787.27
2019-04-30T09:41:16.771Z,93783.39
2019-04-30T09:43:44.959Z,93780.89
2019-04-30T09:46:22.116Z,93782.54
2019-04-30T09:48:43.051Z,93782.81
2019-04-30T09:51:11.977Z,93778.64
2019-04-30T09:53:41.245Z,93776.92
2019-04-30T09:56:09.747Z,93781.60
2019-04-30T09:58:39.343Z,93782.05
2019-04-30T10:01:09.451Z,93780.45
2019-04-30T10:03:38.428Z,93776.17
2019-04-30T10:06:08.957Z,93775.84
2019-04-30T10:08:47.954Z,93775.78
2019-04-30T10:11:30.074Z,93776.22
2019-04-30T10:13:58.571Z,93770.75
2019-04-30T10:16:45.207Z,93770.23
2019-04-30T10:19:14.971Z,93771.14
2019-04-30T10:21:43.316Z,93764.67
2019-04-30T10:24:15.493Z,93768.83
2019-04-30T10:26:42.226Z,93772.96
2019-04-30T10:29:10.953Z,93768.34
2019-04-30T10:31:39.143Z,93768.34
2019-04-30T10:34:09.560Z,93764.23
2019-04-30T10:36:41.152Z,93771.17
2019-04-30T10:39:09.090Z,93771.03
2019-04-30T10:41:36.708Z,93764.84
2019-04-30T10:44:05.051Z,93771.14
2019-04-30T10:46:33.702Z,93771.78
2019-04-30T10:49:01.592Z,93768.93
2019-04-30T10:51:29.882Z,93771.39
2019-04-30T10:53:59.189Z,93764.22
2019-04-30T10:56:29.174Z,93766.45
2019-04-30T10:58:57.957Z,93760.69
2019-04-30T11:01:25.805Z,93760.69
2019-04-30T11:03:54.359Z,93762.48
2019-04-30T11:06:22.301Z,93759.95
2019-04-30T11:08:50.566Z,93759.19
2019-04-30T11:11:18.896Z,93760.38
2019-04-30T11:13:47.155Z,93755.89
2019-04-30T11:16:15.656Z,93759.94
2019-04-30T11:18:43.922Z,93763.03
2019-04-30T11:21:11.740Z,93764.08
2019-04-30T11:23:40.372Z,93766.75
2019-04-30T11:26:09.362Z,93766.61
2019-04-30T11:28:38.478Z,93767.44
2019-04-30T11:31:25.124Z,93759.76
2019-04-30T11:33:54.995Z,93761.63
2019-04-30T11:36:23.195Z,93762.75
2019-04-30T11:38:51.809Z,93758.38
2019-04-30T11:41:30.094Z,93753.81
2019-04-30T11:43:50.335Z,93758.98
2019-04-30T11:46:59.692Z,93755.39
2019-04-30T11:49:27.401Z,93752.39
2019-04-30T11:51:55.693Z,93759.41
2019-04-30T11:54:24.560Z,93758.92
2019-04-30T11:56:52.824Z,93761.74
2019-04-30T11:59:21.650Z,93763.91
2019-04-30T12:01:52.057Z,93770.29
2019-04-30T12:04:20.650Z,93770.73
2019-04-30T12:06:47.997Z,93770.68
2019-04-30T12:09:53.780Z,93769.06
2019-04-30T12:12:21.761Z,93769.90
2019-04-30T12:14:49.957Z,93768.77
2019-04-30T12:17:18.398Z,93769.55
2019-04-30T12:19:48.709Z,93765.70
2019-04-30T12:22:20.078Z,93770.75
2019-04-30T12:24:48.746Z,93762.95
2019-04-30T12:27:18.685Z,93764.58
2019-04-30T12:29:47.074Z,93761.41
2019-04-30T12:32:15.708Z,93753.22
2019-04-30T12:34:43.714Z,93758.09
2019-04-30T12:37:12.579Z,93755.91
2019-04-30T12:39:40.866Z,93757.38
2019-04-30T12:42:09.510Z,93756.56
2019-04-30T12:44:39.933Z,93754.45
2019-04-30T12:47:09.689Z,93755.61
2019-04-30T12:49:52.907Z,93754.86
2019-04-30T12:52:29.716Z,93751.63
2019-04-30T12:55:01.123Z,93750.28
2019-04-30T12:57:39.234Z,93746.51
2019-04-30T13:00:09.585Z,93741.03
2019-04-30T13:02:37.503Z,93739.44
2019-04-30T13:05:08.684Z,93732.05
2019-04-30T13:07:39.020Z,93728.59
2019-04-30T13:10:07.973Z,93728.43
2019-04-30T13:12:37.014Z,93720.41
2019-04-30T13:15:06.511Z,93717.87
2019-04-30T13:17:34.505Z,93718.13
2019-04-30T13:20:02.377Z,93711.38
2019-04-30T13:22:31.027Z,93711.47
2019-04-30T13:24:59.706Z,93704.00
2019-04-30T13:27:29.307Z,93710.41
2019-04-30T13:30:06.105Z,93714.73
2019-04-30T13:32:40.276Z,93714.55
2019-04-30T13:35:09.365Z,93713.59
2019-04-30T13:37:45.641Z,93715.53
2019-04-30T13:40:32.591Z,93709.24
2019-04-30T13:43:01.384Z,93709.09
2019-04-30T13:45:28.955Z,93705.73
2019-04-30T13:47:56.542Z,93702.69
2019-04-30T13:50:25.115Z,93704.03
2019-04-30T13:52:53.046Z,93703.48
2019-04-30T13:55:21.011Z,93699.60
2019-04-30T13:57:49.022Z,93700.80
2019-04-30T14:00:22.345Z,93706.97
2019-04-30T14:02:59.202Z,93699.48
2019-04-30T14:05:27.530Z,93699.48
2019-04-30T14:08:09.565Z,93697.55
2019-04-30T14:10:41.269Z,93695.61
2019-04-30T14:13:10.819Z,93696.61
2019-04-30T14:15:39.775Z,93692.23
2019-04-30T14:18:09.338Z,93692.18
2019-04-30T14:20:38.057Z,93696.07
2019-04-30T14:23:08.564Z,93706.77
2019-04-30T14:25:36.877Z,93702.11
2019-04-30T14:28:05.296Z,93702.64
2019-04-30T14:30:33.348Z,93710.79
2019-04-30T14:33:01.867Z,93709.65
2019-04-30T14:35:30.143Z,93710.06
2019-04-30T14:37:59.634Z,93713.50
2019-04-30T14:40:30.600Z,93710.58
2019-04-30T14:43:09.806Z,93704.40
2019-04-30T14:45:55.175Z,93689.81
2019-04-30T14:48:31.179Z,93686.43
2019-04-30T14:51:00.122Z,93686.45
2019-04-30T14:53:49.975Z,93684.98
2019-04-30T14:56:40.688Z,93689.08
2019-04-30T14:59:34.365Z,93692.47
2019-04-30T15:02:20.944Z,93699.03
2019-04-30T15:04:48.942Z,93696.81
2019-04-30T15:07:17.208Z,93700.31
2019-04-30T15:09:45.484Z,93702.05
2019-04-30T15:12:14.202Z,93701.81
2019-04-30T15:14:43.055Z,93705.33
2019-04-30T15:17:11.007Z,93705.39
2019-04-30T15:19:39.352Z,93703.43
2019-04-30T15:22:09.133Z,93702.62
2019-04-30T15:24:39.237Z,93705.77
2019-04-30T15:27:09.207Z,93704.78
2019-04-30T15:29:39.213Z,93695.39
2019-04-30T15:32:08.675Z,93699.11
2019-04-30T15:34:39.278Z,93688.27
2019-04-30T15:37:18.714Z,93686.90
2019-04-30T15:39:40.532Z,93686.77
2019-04-30T15:42:09.366Z,93683.42
2019-04-30T15:44:42.642Z,93678.33
2019-04-30T15:47:08.972Z,93688.53
2019-04-30T15:49:37.237Z,93688.75
2019-04-30T15:52:05.181Z,93690.87
2019-04-30T15:54:34.008Z,93697.21
2019-04-30T15:57:02.403Z,93685.99
2019-04-30T15:59:43.233Z,93684.00
2019-04-30T16:02:23.526Z,93691.48
2019-04-30T16:05:25.622Z,93684.94
2019-04-30T16:08:12.466Z,93683.84
2019-04-30T16:11:00.577Z,93686.09
2019-04-30T16:13:31.826Z,93685.02
2019-04-30T16:16:00.460Z,93681.16
2019-04-30T16:18:35.577Z,93676.13
2019-04-30T16:21:03.865Z,93683.42
2019-04-30T16:23:32.158Z,93687.29
2019-04-30T16:26:00.545Z,93682.60
2019-04-30T16:28:29.527Z,93679.01
2019-04-30T16:30:57.931Z,93673.92
2019-04-30T16:33:26.192Z,93679.17
2019-04-30T16:35:54.956Z,93684.42
2019-04-30T16:38:22.542Z,93688.20
2019-04-30T16:40:50.746Z,93685.62
2019-04-30T16:43:20.352Z,93687.63
2019-04-30T16:45:49.437Z,93679.28
2019-04-30T16:48:19.351Z,93683.70
2019-04-30T16:50:48.905Z,93689.93
2019-04-30T16:53:18.503Z,93682.45
2019-04-30T16:55:50.369Z,93681.52
2019-04-30T16:58:19.447Z,93681.73
2019-04-30T17:00:46.362Z,93683.43
2019-04-30T17:03:20.745Z,93683.31
2019-04-30T17:05:53.113Z,93679.47
2019-04-30T17:08:35.377Z,93682.91
2019-04-30T17:11:38.698Z,93679.28
2019-04-30T17:14:10.268Z,93681.34
2019-04-30T17:16:39.192Z,93673.11
2019-04-30T17:19:09.088Z,93674.43
2019-04-30T17:21:37.451Z,93673.29
2019-04-30T17:24:05.724Z,93676.48
2019-04-30T17:26:34.015Z,93672.55
2019-04-30T17:29:02.425Z,93679.77
2019-04-30T17:31:31.306Z,93676.75
2019-04-30T17:33:59.677Z,93674.60
2019-04-30T17:36:27.161Z,93667.63
2019-04-30T17:38:55.060Z,93669.70
2019-04-30T17:41:23.521Z,93668.52
2019-04-30T17:43:51.645Z,93659.52
2019-04-30T17:46:20.301Z,93661.36
2019-04-30T17:48:49.553Z,93666.96
2019-04-30T17:51:18.178Z,93664.23
2019-04-30T17:54:05.691Z,93663.32
2019-04-30T17:56:34.296Z,93667.87
2019-04-30T17:59:02.253Z,93673.77
2019-04-30T18:01:30.528Z,93677.95
2019-04-30T18:03:58.894Z,93671.49
2019-04-30T18:06:27.727Z,93674.90
2019-04-30T18:08:56.308Z,93678.66
2019-04-30T18:11:24.854Z,93680.27
2019-04-30T18:13:53.247Z,93677.41
2019-04-30T18:16:21.152Z,93676.56
2019-04-30T18:18:59.223Z,93674.68
2019-04-30T18:21:32.039Z,93671.57
2019-04-30T18:24:43.531Z,93679.70
2019-04-30T18:27:45.572Z,93687.83
2019-04-30T18:30:13.417Z,93691.87
2019-04-30T18:32:42.173Z,93695.09
2019-04-30T18:35:10.411Z,93697.80
2019-04-30T18:37:38.987Z,93701.80
2019-04-30T18:40:09.516Z,93707.38
2019-04-30T18:42:39.536Z,93708.87
2019-04-30T18:45:09.186Z,93706.09
2019-04-30T18:47:37.847Z,93706.30
2019-04-30T18:50:06.022Z,93709.84
2019-04-30T18:52:35.736Z,93711.45
2019-04-30T18:55:04.671Z,93715.23
2019-04-30T18:57:32.918Z,93720.09
2019-04-30T19:00:01.921Z,93722.42
2019-04-30T19:02:30.288Z,93726.93
2019-04-30T19:04:59.515Z,93735.02
2019-04-30T19:07:36.181Z,93729.33
2019-04-30T19:10:33.610Z,93723.68
2019-04-30T19:13:12.344Z,93727.95
2019-04-30T19:16:18.592Z,93729.05
2019-04-30T19:18:48.540Z,93723.33
2019-04-30T19:21:16.789Z,93726.77
2019-04-30T19:23:45.418Z,93728.15
2019-04-30T19:26:14.008Z,93728.25
2019-04-30T19:28:42.739Z,93731.19
2019-04-30T19:31:11.740Z,93736.37
2019-04-30T19:33:39.858Z,93739.31
2019-04-30T19:36:09.639Z,93740.68
2019-04-30T19:38:38.132Z,93738.56
2019-04-30T19:41:10.653Z,93737.39
2019-04-30T19:43:39.096Z,93739.89
2019-04-30T19:46:09.051Z,93742.05
2019-04-30T19:48:38.010Z,93745.42
2019-04-30T19:51:08.705Z,93750.17
2019-04-30T19:53:39.366Z,93747.62
2019-04-30T19:56:08.007Z,93750.06
2019-04-30T19:58:50.083Z,93740.91
2019-04-30T20:01:09.370Z,93743.56
2019-04-30T20:03:36.940Z,93744.82
2019-04-30T20:06:04.508Z,93743.64
2019-04-30T20:08:32.788Z,93745.80
2019-04-30T20:11:00.758Z,93749.27
2019-04-30T20:13:36.575Z,93750.49
2019-04-30T20:15:59.456Z,93745.88
2019-04-30T20:18:29.199Z,93743.87
2019-04-30T20:21:01.198Z,93743.53
2019-04-30T20:23:29.637Z,93746.86
2019-04-30T20:25:57.937Z,93744.71
2019-04-30T20:28:38.614Z,93746.20
2019-04-30T20:30:56.803Z,93741.76
2019-04-30T20:33:25.051Z,93743.44
2019-04-30T20:35:53.818Z,93744.70
2019-04-30T20:38:53.209Z,93743.95
2019-04-30T20:41:21.193Z,93747.72
2019-04-30T20:43:49.571Z,93749.42
2019-04-30T20:46:29.794Z,93744.83
2019-04-30T20:48:49.087Z,93746.57
2019-04-30T20:51:19.591Z,93750.39
2019-04-30T20:53:49.147Z,93751.26
2019-04-30T20:56:19.139Z,93751.62
2019-04-30T20:58:57.195Z,93742.80
2019-04-30T21:01:19.199Z,93740.73
2019-04-30T21:03:47.377Z,93743.72
2019-04-30T21:06:16.083Z,93740.92
2019-04-30T21:08:44.652Z,93736.72
2019-04-30T21:11:12.576Z,93737.63
2019-04-30T21:13:40.602Z,93729.61
2019-04-30T21:16:08.553Z,93731.75
2019-04-30T21:18:39.170Z,93738.58
2019-04-30T21:21:07.808Z,93740.79
2019-04-30T21:23:35.981Z,93740.39
2019-04-30T21:26:04.288Z,93737.45
2019-04-30T21:28:32.743Z,93732.11
2019-04-30T21:31:20.291Z,93730.01
2019-04-30T21:33:50.058Z,93727.97
2019-04-30T21:36:21.248Z,93725.90
2019-04-30T21:38:49.678Z,93727.23
2019-04-30T21:41:19.445Z,93730.27
2019-04-30T21:43:47.717Z,93727.73
2019-04-30T21:46:16.417Z,93727.30
2019-04-30T21:48:45.132Z,93725.25
2019-04-30T21:51:13.121Z,93719.38
2019-04-30T21:53:41.000Z,93728.66
2019-04-30T21:56:09.636Z,93728.78
2019-04-30T21:58:39.245Z,93724.63
2019-04-30T22:01:23.320Z,93723.08
2019-04-30T22:03:51.336Z,93722.72
2019-04-30T22:06:20.189Z,93732.11
2019-04-30T22:08:48.681Z,93722.39
2019-04-30T22:11:19.623Z,93721.56
2019-04-30T22:13:49.403Z,93720.21
2019-04-30T22:16:20.099Z,93723.18
2019-04-30T22:18:48.541Z,93717.70
2019-04-30T22:21:16.736Z,93713.47
2019-04-30T22:23:45.446Z,93723.64
2019-04-30T22:26:13.638Z,93713.98
2019-04-30T22:28:41.977Z,93717.70
2019-04-30T22:31:10.146Z,93711.52
2019-04-30T22:33:39.195Z,93713.39
2019-04-30T22:36:13.943Z,93717.68
2019-04-30T22:39:00.272Z,93713.05
2019-04-30T22:41:29.707Z,93713.96
2019-04-30T22:43:58.487Z,93714.33
2019-04-30T22:46:27.072Z,93713.88
2019-04-30T22:48:55.556Z,93712.64
2019-04-30T22:51:24.146Z,93711.30
2019-04-30T22:53:52.005Z,93712.16
2019-04-30T22:56:19.621Z,93708.44
2019-04-30T22:58:48.273Z,93702.17
2019-04-30T23:01:38.972Z,93700.08
2019-04-30T23:04:10.448Z,93697.48
2019-04-30T23:06:38.047Z,93703.48
2019-04-30T23:09:08.531Z,93701.03
2019-04-30T23:11:37.106Z,93696.06
2019-04-30T23:14:05.292Z,93696.06
2019-04-30T23:16:33.669Z,93693.11
2019-04-30T23:19:02.362Z,93690.17
2019-04-30T23:21:30.755Z,93688.92
2019-04-30T23:23:59.032Z,93697.44
2019-04-30T23:26:27.719Z,93692.42
2019-04-30T23:28:56.008Z,93683.13
2019-04-30T23:31:24.372Z,93691.14
2019-04-30T23:33:52.700Z,93688.60
2019-04-30T23:36:21.408Z,93682.29
2019-04-30T23:38:48.998Z,93681.48
2019-04-30T23:41:17.312Z,93678.97
2019-04-30T23:43:45.548Z,93676.44
2019-04-30T23:46:14.307Z,93671.84
2019-04-30T23:48:42.267Z,93668.45
2019-04-30T23:51:10.539Z,93668.04
2019-04-30T23:53:39.283Z,93670.98
2019-04-30T23:56:07.518Z,93668.88
2019-04-30T23:58:36.091Z,93673.91
